Time;durP1;ratioP1;P1;durP2;ratioP2;P2;SDS_P1;SDS_P2;PMS_P1;PMS_P2;Temp;Humidity;BMP_temperature;BMP_pressure;BME280_temperature;BME280_humidity;BME280_pressure;Samples;Min_cycle;Max_cycle;Signal;HPM_P1;HPM_P2
2024/02/23 00:02:08;;;;;;;1.30;0.70;;;7.60;99.90;;;;;;5053477;28;20171;-72
2024/02/23 00:04:34;;;;;;;4.63;0.80;;;7.50;99.90;;;;;;5053759;28;20179;-72
2024/02/23 00:06:59;;;;;;;1.00;0.83;;;7.40;99.90;;;;;;5053611;28;20577;-72
2024/02/23 00:09:25;;;;;;;0.80;0.60;;;7.40;99.90;;;;;;5053420;28;20178;-72
2024/02/23 00:11:50;;;;;;;1.03;0.80;;;7.30;99.90;;;;;;5053278;28;20175;-72
2024/02/23 00:14:20;;;;;;;1.17;0.77;;;7.30;99.90;;;;;;5053460;28;20199;-72
2024/02/23 00:16:45;;;;;;;0.70;0.50;;;7.20;99.90;;;;;;5053287;28;20252;-72
2024/02/23 00:19:11;;;;;;;1.90;0.73;;;7.10;99.90;;;;;;5053393;28;20441;-72
2024/02/23 00:21:40;;;;;;;1.30;1.07;;;6.90;99.90;;;;;;5053268;28;20688;-72
2024/02/23 00:24:06;;;;;;;0.80;0.60;;;6.90;99.90;;;;;;5053281;28;20179;-72
2024/02/23 00:26:32;;;;;;;4.27;0.90;;;6.60;99.90;;;;;;5051980;28;20421;-72
2024/02/23 00:28:57;;;;;;;0.70;0.60;;;6.60;99.90;;;;;;5051885;28;20491;-72
2024/02/23 00:31:23;;;;;;;0.80;0.70;;;6.40;99.90;;;;;;5053032;28;20175;-72
2024/02/23 00:33:48;;;;;;;1.03;0.93;;;6.30;99.90;;;;;;5053047;28;20198;-72
2024/02/23 00:36:14;;;;;;;0.80;0.60;;;6.20;99.90;;;;;;5053132;28;20173;-72
2024/02/23 00:38:40;;;;;;;1.47;0.90;;;6.20;99.90;;;;;;5052999;28;20179;-72
2024/02/23 00:41:06;;;;;;;1.00;0.67;;;6.10;99.90;;;;;;5052807;28;20167;-72
2024/02/23 00:43:38;;;;;;;0.90;0.70;;;6.10;99.90;;;;;;5050550;28;20662;-72
2024/02/23 00:46:04;;;;;;;1.23;0.70;;;6.00;99.90;;;;;;5052808;28;20497;-72
2024/02/23 00:48:30;;;;;;;3.00;0.90;;;5.90;99.90;;;;;;5052757;28;20452;-72
2024/02/23 00:50:55;;;;;;;1.97;0.83;;;5.90;99.90;;;;;;5052554;28;20421;-72
2024/02/23 00:53:21;;;;;;;1.10;1.00;;;5.80;99.90;;;;;;5052304;28;20194;-72
2024/02/23 00:55:47;;;;;;;1.37;0.87;;;5.80;99.90;;;;;;5052281;28;20163;-72
2024/02/23 00:58:13;;;;;;;2.20;1.07;;;5.70;99.90;;;;;;5051298;28;20456;-72
2024/02/23 01:00:38;;;;;;;2.47;1.00;;;5.70;99.90;;;;;;5052502;28;20511;-72
2024/02/23 01:03:05;;;;;;;1.50;0.67;;;5.70;99.90;;;;;;5052593;28;20195;-71
2024/02/23 01:05:30;;;;;;;1.57;0.70;;;5.80;99.90;;;;;;5052683;28;20565;-72
2024/02/23 01:07:56;;;;;;;0.90;0.70;;;5.80;99.90;;;;;;5052433;28;20436;-71
2024/02/23 01:10:21;;;;;;;1.00;0.90;;;5.80;99.90;;;;;;5052361;28;20265;-72
2024/02/23 01:12:47;;;;;;;1.37;0.80;;;5.80;99.90;;;;;;5052548;28;20661;-72
2024/02/23 01:15:12;;;;;;;1.10;0.90;;;5.80;99.90;;;;;;5052366;28;20553;-72
2024/02/23 01:17:38;;;;;;;1.07;0.63;;;5.80;99.90;;;;;;5052272;28;20194;-72
2024/02/23 01:20:04;;;;;;;1.30;0.80;;;5.80;99.90;;;;;;5052333;28;20625;-72
2024/02/23 01:22:30;;;;;;;0.80;0.53;;;5.90;99.90;;;;;;5052015;28;20163;-73
2024/02/23 01:24:55;;;;;;;0.80;0.60;;;5.80;99.90;;;;;;5052278;28;20811;-72
2024/02/23 01:27:21;;;;;;;0.83;0.57;;;5.80;99.90;;;;;;5052239;28;20187;-73
2024/02/23 01:29:47;;;;;;;0.80;0.50;;;5.80;99.90;;;;;;5052233;28;20171;-73
2024/02/23 01:32:13;;;;;;;2.50;0.60;;;5.80;99.90;;;;;;5051744;28;20417;-72
2024/02/23 01:34:38;;;;;;;0.90;0.60;;;5.80;99.90;;;;;;5050685;28;20186;-72
2024/02/23 01:37:04;;;;;;;1.00;0.63;;;5.70;99.90;;;;;;5050630;28;20194;-72
2024/02/23 01:39:30;;;;;;;1.17;0.70;;;5.70;99.90;;;;;;5052097;28;20167;-73
2024/02/23 01:41:55;;;;;;;0.80;0.60;;;5.70;99.90;;;;;;5051914;28;20232;-73
2024/02/23 01:44:21;;;;;;;1.57;0.60;;;5.70;99.90;;;;;;5052052;28;20249;-72
2024/02/23 01:46:47;;;;;;;0.80;0.60;;;5.60;99.90;;;;;;5051925;28;20189;-72
2024/02/23 01:49:13;;;;;;;1.33;1.23;;;5.60;99.90;;;;;;5051885;28;20416;-72
2024/02/23 01:51:39;;;;;;;1.10;0.80;;;5.50;99.90;;;;;;5050274;28;20504;-72
2024/02/23 01:54:06;;;;;;;2.27;0.77;;;5.50;99.90;;;;;;5051800;28;21063;-72
2024/02/23 01:56:32;;;;;;;1.47;0.80;;;5.50;99.90;;;;;;5051780;28;20187;-72
2024/02/23 01:58:59;;;;;;;1.10;0.70;;;5.50;99.90;;;;;;5051767;28;20451;-72
2024/02/23 02:01:25;;;;;;;1.43;0.70;;;5.50;99.90;;;;;;5051483;28;20429;-72
2024/02/23 02:03:50;;;;;;;0.90;0.77;;;5.50;99.90;;;;;;5051746;28;20435;-72
2024/02/23 02:06:16;;;;;;;0.80;0.60;;;5.50;99.90;;;;;;5051434;28;20167;-72
2024/02/23 02:08:41;;;;;;;1.00;0.87;;;5.40;99.90;;;;;;5051671;28;20250;-72
2024/02/23 02:11:07;;;;;;;1.83;0.60;;;5.40;99.90;;;;;;5051435;28;20532;-71
2024/02/23 02:13:32;;;;;;;1.67;0.60;;;5.40;99.90;;;;;;5051607;28;20198;-72
2024/02/23 02:16:01;;;;;;;0.80;0.77;;;5.40;99.90;;;;;;5051474;28;20190;-73
2024/02/23 02:18:26;;;;;;;3.33;0.60;;;5.30;99.90;;;;;;5051707;28;20568;-73
2024/02/23 02:20:55;;;;;;;1.20;0.70;;;5.30;99.90;;;;;;5051522;28;20406;-72
2024/02/23 02:23:20;;;;;;;7.00;1.00;;;5.20;99.90;;;;;;5051520;28;20155;-72
2024/02/23 02:25:52;;;;;;;0.80;0.60;;;5.20;99.90;;;;;;5051571;28;20402;-72
2024/02/23 02:28:18;;;;;;;4.30;0.70;;;5.20;99.90;;;;;;5051525;28;20179;-72
2024/02/23 02:30:43;;;;;;;0.90;0.80;;;5.20;99.90;;;;;;5051201;28;20761;-72
2024/02/23 02:33:09;;;;;;;0.80;0.60;;;5.20;99.90;;;;;;5051494;28;20541;-72
2024/02/23 02:35:34;;;;;;;3.43;0.87;;;5.30;99.90;;;;;;5051439;28;20194;-72
2024/02/23 02:38:00;;;;;;;1.87;1.77;;;5.30;99.90;;;;;;5051448;28;20183;-72
2024/02/23 02:40:25;;;;;;;0.80;0.60;;;5.30;99.90;;;;;;5051849;28;20171;-72
2024/02/23 02:42:51;;;;;;;0.80;0.50;;;5.40;99.90;;;;;;5049784;28;20197;-72
2024/02/23 02:45:17;;;;;;;3.00;1.03;;;5.30;99.90;;;;;;5051344;28;20203;-72
2024/02/23 02:47:43;;;;;;;0.83;0.60;;;5.30;99.90;;;;;;5051272;28;20194;-73
2024/02/23 02:50:09;;;;;;;0.90;0.80;;;5.30;99.90;;;;;;5051333;28;20410;-72
2024/02/23 02:52:34;;;;;;;5.70;0.80;;;5.30;99.90;;;;;;5050898;28;20187;-72
2024/02/23 02:55:00;;;;;;;1.83;1.00;;;5.20;99.90;;;;;;5051196;28;20533;-72
2024/02/23 02:57:25;;;;;;;3.23;0.77;;;5.20;99.90;;;;;;5051253;28;20244;-73
2024/02/23 02:59:51;;;;;;;1.67;0.97;;;5.20;99.90;;;;;;5049937;28;20217;-73
2024/02/23 03:02:17;;;;;;;0.80;0.63;;;5.20;99.90;;;;;;5049900;28;20171;-72
2024/02/23 03:04:49;;;;;;;2.60;1.10;;;5.20;99.90;;;;;;5051318;28;20436;-72
2024/02/23 03:07:18;;;;;;;1.33;0.70;;;5.30;99.90;;;;;;5051160;28;20222;-73
2024/02/23 03:09:44;;;;;;;2.60;0.97;;;5.30;99.90;;;;;;5051175;28;20404;-73
2024/02/23 03:12:10;;;;;;;2.30;1.10;;;5.20;99.90;;;;;;5050831;28;20916;-73
2024/02/23 03:14:39;;;;;;;2.80;0.80;;;5.20;99.90;;;;;;5051052;28;20238;-74
2024/02/23 03:17:05;;;;;;;1.00;0.70;;;5.20;99.90;;;;;;5051249;28;20455;-72
2024/02/23 03:19:32;;;;;;;1.60;0.70;;;5.20;99.90;;;;;;5054646;28;20892;-73
2024/02/23 03:21:57;;;;;;;0.90;0.50;;;5.10;99.90;;;;;;5053175;28;20405;-73
2024/02/23 03:24:23;;;;;;;1.43;0.97;;;5.10;99.90;;;;;;5054488;28;20450;-71
2024/02/23 03:26:49;;;;;;;5.17;0.70;;;5.10;99.90;;;;;;5054351;28;20244;-72
2024/02/23 03:29:14;;;;;;;1.10;0.70;;;5.10;99.90;;;;;;5054447;28;20254;-73
2024/02/23 03:31:40;;;;;;;2.83;0.83;;;5.10;99.90;;;;;;5054174;28;20169;-73
2024/02/23 03:34:05;;;;;;;0.90;0.60;;;5.00;99.90;;;;;;5054012;28;20201;-73
2024/02/23 03:36:31;;;;;;;0.70;0.50;;;5.10;99.90;;;;;;5054143;28;20194;-73
2024/02/23 03:38:56;;;;;;;12.70;0.93;;;5.00;99.90;;;;;;5054721;28;20159;-72
2024/02/23 03:41:22;;;;;;;1.10;0.77;;;5.00;99.90;;;;;;5053952;28;20175;-73
2024/02/23 03:43:47;;;;;;;2.30;0.80;;;5.00;99.90;;;;;;5054378;28;20584;-73
2024/02/23 03:46:14;;;;;;;2.80;0.93;;;5.10;99.90;;;;;;5054074;28;20246;-73
2024/02/23 03:48:40;;;;;;;5.80;0.90;;;5.10;99.90;;;;;;5052781;28;20174;-73
2024/02/23 03:51:06;;;;;;;2.63;0.80;;;5.20;99.90;;;;;;5053736;28;20480;-72
2024/02/23 03:53:32;;;;;;;9.33;0.73;;;5.20;99.90;;;;;;5053801;28;20183;-73
2024/02/23 03:55:58;;;;;;;1.10;0.70;;;5.30;99.90;;;;;;5053849;28;20452;-72
2024/02/23 03:58:23;;;;;;;1.93;0.80;;;5.30;99.90;;;;;;5052599;28;20171;-72
2024/02/23 04:00:49;;;;;;;1.57;1.27;;;5.50;99.90;;;;;;5053693;28;20407;-73
2024/02/23 04:03:14;;;;;;;2.47;0.70;;;5.60;99.90;;;;;;5052580;28;20175;-72
2024/02/23 04:05:40;;;;;;;2.40;1.27;;;5.60;99.90;;;;;;5053802;28;20546;-72
2024/02/23 04:08:06;;;;;;;1.87;0.73;;;5.70;99.90;;;;;;5052406;28;20199;-72
2024/02/23 04:10:31;;;;;;;1.00;0.63;;;5.70;99.90;;;;;;5053285;28;20175;-73
2024/02/23 04:12:58;;;;;;;2.60;1.03;;;5.80;99.90;;;;;;5053640;28;20491;-74
2024/02/23 04:15:23;;;;;;;1.40;0.90;;;5.80;99.90;;;;;;5052200;28;20218;-73
2024/02/23 04:17:49;;;;;;;1.50;0.70;;;5.80;99.90;;;;;;5053551;28;20429;-72
2024/02/23 04:20:14;;;;;;;1.27;0.70;;;5.90;99.90;;;;;;5053531;28;20253;-73
2024/02/23 04:22:40;;;;;;;0.80;0.60;;;5.90;99.90;;;;;;5053213;28;20173;-72
2024/02/23 04:25:06;;;;;;;1.67;0.87;;;5.90;99.90;;;;;;5052044;28;20175;-72
2024/02/23 04:27:32;;;;;;;1.63;0.70;;;5.90;99.90;;;;;;5053604;28;20195;-73
2024/02/23 04:29:57;;;;;;;8.83;2.10;;;6.00;99.90;;;;;;5053214;28;20163;-73
2024/02/23 04:32:23;;;;;;;0.70;0.50;;;6.00;99.90;;;;;;5053229;28;20262;-72
2024/02/23 04:34:48;;;;;;;0.90;0.63;;;6.00;99.90;;;;;;5053481;28;20191;-72
2024/02/23 04:37:14;;;;;;;2.20;1.03;;;6.00;99.90;;;;;;5053109;28;20963;-72
2024/02/23 04:39:41;;;;;;;3.53;1.00;;;6.00;99.90;;;;;;5053075;28;20195;-72
2024/02/23 04:42:08;;;;;;;1.80;0.90;;;6.00;99.90;;;;;;5052877;28;20167;-72
2024/02/23 04:44:34;;;;;;;3.40;0.73;;;6.00;99.90;;;;;;5051782;28;20409;-72
2024/02/23 04:47:00;;;;;;;6.27;1.10;;;5.90;99.90;;;;;;5052973;28;20986;-73
2024/02/23 04:49:25;;;;;;;1.63;0.93;;;5.80;99.90;;;;;;5051723;28;20417;-72
2024/02/23 04:51:51;;;;;;;1.43;0.80;;;5.70;99.90;;;;;;5052783;28;20630;-72
2024/02/23 04:54:16;;;;;;;1.27;0.90;;;5.60;99.90;;;;;;5052701;28;20199;-73
2024/02/23 04:56:42;;;;;;;0.97;0.70;;;5.60;99.90;;;;;;5052744;28;20194;-72
2024/02/23 04:59:07;;;;;;;1.93;0.93;;;5.60;99.90;;;;;;5052751;28;20173;-72
2024/02/23 05:01:37;;;;;;;2.20;0.70;;;5.60;99.90;;;;;;5052604;28;20177;-72
2024/02/23 05:04:03;;;;;;;1.30;0.60;;;5.50;99.90;;;;;;5051283;28;20274;-73
2024/02/23 05:06:29;;;;;;;2.93;0.73;;;5.50;99.90;;;;;;5052542;28;20425;-73
2024/02/23 05:08:54;;;;;;;3.67;1.30;;;5.50;99.90;;;;;;5052541;28;20413;-73
2024/02/23 05:11:20;;;;;;;1.30;0.70;;;5.50;99.90;;;;;;5052325;28;20758;-72
2024/02/23 05:13:45;;;;;;;0.70;0.57;;;5.50;99.90;;;;;;5051114;28;20229;-73
2024/02/23 05:16:13;;;;;;;1.60;0.90;;;5.50;99.90;;;;;;5052465;28;20181;-72
2024/02/23 05:18:38;;;;;;;8.03;0.83;;;5.40;99.90;;;;;;5052339;28;20186;-71
2024/02/23 05:21:05;;;;;;;1.30;0.70;;;5.30;99.90;;;;;;5052227;28;20413;-72
2024/02/23 05:23:30;;;;;;;1.10;0.90;;;5.20;99.90;;;;;;5050980;28;20167;-72
2024/02/23 05:25:56;;;;;;;3.50;0.70;;;5.20;99.90;;;;;;5050977;28;20410;-72
2024/02/23 05:28:21;;;;;;;3.80;0.90;;;5.20;99.90;;;;;;5052193;28;20218;-73
2024/02/23 05:30:47;;;;;;;1.40;1.00;;;5.10;99.90;;;;;;5051925;28;20646;-72
2024/02/23 05:33:12;;;;;;;5.67;1.00;;;5.10;99.90;;;;;;5052099;28;20648;-72
2024/02/23 05:35:38;;;;;;;0.70;0.60;;;5.10;99.90;;;;;;5052138;28;20191;-72
2024/02/23 05:38:05;;;;;;;0.90;0.70;;;5.00;99.90;;;;;;5052039;28;20187;-73
2024/02/23 05:40:32;;;;;;;4.63;0.83;;;5.00;99.90;;;;;;5051514;28;20250;-73
2024/02/23 05:42:58;;;;;;;4.83;0.80;;;5.00;99.90;;;;;;5052049;28;20507;-72
2024/02/23 05:45:23;;;;;;;1.00;0.70;;;5.00;99.90;;;;;;5050711;28;20444;-72
2024/02/23 05:47:49;;;;;;;1.87;0.90;;;5.00;99.90;;;;;;5051887;28;20183;-72
2024/02/23 05:50:15;;;;;;;0.80;0.70;;;5.10;99.90;;;;;;5051933;28;20193;-72
2024/02/23 05:52:40;;;;;;;0.70;0.60;;;5.10;99.90;;;;;;5050155;28;20186;-72
2024/02/23 05:55:07;;;;;;;2.70;1.27;;;5.10;99.90;;;;;;5051876;28;20194;-72
2024/02/23 05:57:33;;;;;;;3.50;1.20;;;5.10;99.90;;;;;;5051800;28;20183;-72
2024/02/23 05:59:59;;;;;;;4.70;1.17;;;5.00;99.90;;;;;;5051864;28;20789;-72
2024/02/23 06:02:24;;;;;;;1.87;0.80;;;5.00;99.90;;;;;;5051510;28;20468;-72
2024/02/23 06:04:50;;;;;;;14.20;1.37;;;4.90;99.90;;;;;;5051745;28;20649;-72
2024/02/23 06:07:15;;;;;;;3.33;0.90;;;4.90;99.90;;;;;;5051605;28;20243;-72
2024/02/23 06:09:42;;;;;;;5.50;1.63;;;4.80;99.90;;;;;;5051705;28;20171;-72
2024/02/23 06:12:08;;;;;;;12.20;1.40;;;4.80;99.90;;;;;;5051614;28;20170;-72
2024/02/23 06:14:34;;;;;;;0.80;0.70;;;4.90;99.90;;;;;;5051540;28;20827;-72
2024/02/23 06:16:59;;;;;;;3.40;1.07;;;4.90;99.90;;;;;;5051552;28;20429;-72
2024/02/23 06:19:25;;;;;;;1.53;0.90;;;4.90;99.90;;;;;;5051585;28;20208;-72
2024/02/23 06:21:50;;;;;;;1.70;0.87;;;4.90;99.90;;;;;;5051306;28;20249;-72
2024/02/23 06:24:16;;;;;;;0.90;0.77;;;4.90;99.90;;;;;;5051566;28;20163;-71
2024/02/23 06:26:42;;;;;;;1.20;0.80;;;4.90;99.90;;;;;;5051437;28;20265;-71
2024/02/23 06:29:11;;;;;;;1.80;0.70;;;4.90;99.90;;;;;;5051499;28;20413;-72
2024/02/23 06:31:38;;;;;;;3.80;1.23;;;4.90;99.90;;;;;;5051175;28;20440;-71
2024/02/23 06:34:03;;;;;;;2.03;1.00;;;4.90;99.90;;;;;;5051372;28;20449;-72
2024/02/23 06:36:29;;;;;;;8.33;0.90;;;4.90;99.90;;;;;;5051390;28;20765;-72
2024/02/23 06:38:54;;;;;;;1.97;0.97;;;4.80;99.90;;;;;;5051799;28;20167;-72
2024/02/23 06:41:20;;;;;;;5.00;1.33;;;4.60;99.90;;;;;;5051341;28;20213;-72
2024/02/23 06:43:45;;;;;;;1.73;0.90;;;4.50;99.90;;;;;;5050064;28;20593;-72
2024/02/23 06:46:11;;;;;;;1.87;1.10;;;4.40;99.90;;;;;;5049957;28;20171;-72
2024/02/23 06:48:37;;;;;;;6.00;1.07;;;4.40;99.90;;;;;;5051328;28;20522;-72
2024/02/23 06:51:04;;;;;;;0.90;0.70;;;4.50;99.90;;;;;;5051450;28;20210;-72
2024/02/23 06:53:29;;;;;;;2.27;0.90;;;4.50;99.90;;;;;;5053559;28;20187;-72
2024/02/23 06:55:55;;;;;;;4.60;1.20;;;4.60;99.90;;;;;;5055083;28;20408;-72
2024/02/23 06:58:21;;;;;;;7.60;1.83;;;4.70;99.90;;;;;;5053661;28;20260;-72
2024/02/23 07:00:47;;;;;;;4.87;1.20;;;4.70;99.90;;;;;;5053343;28;20220;-72
2024/02/23 07:03:14;;;;;;;1.23;0.60;;;4.90;99.90;;;;;;5054940;28;20809;-72
2024/02/23 07:05:42;;;;;;;1.33;1.03;;;5.10;99.90;;;;;;5054808;28;20404;-72
2024/02/23 07:08:07;;;;;;;6.50;1.90;;;5.30;99.90;;;;;;5054928;28;20503;-72
2024/02/23 07:10:33;;;;;;;1.13;0.80;;;5.30;99.90;;;;;;5054762;28;20443;-72
2024/02/23 07:12:58;;;;;;;6.37;0.93;;;5.40;99.90;;;;;;5054736;28;20224;-72
2024/02/23 07:15:25;;;;;;;2.60;1.03;;;5.60;99.90;;;;;;5054647;28;20198;-72
2024/02/23 07:17:54;;;;;;;1.67;1.13;;;5.70;99.90;;;;;;5054678;28;20232;-72
2024/02/23 07:20:19;;;;;;;1.87;0.83;;;5.70;99.90;;;;;;5054625;28;20397;-72
2024/02/23 07:22:45;;;;;;;2.00;0.90;;;5.60;99.90;;;;;;5054280;28;20405;-72
2024/02/23 07:25:11;;;;;;;2.57;1.00;;;5.60;99.90;;;;;;5054530;28;20166;-72
2024/02/23 07:27:37;;;;;;;1.60;1.03;;;5.50;99.90;;;;;;5053050;28;20459;-72
2024/02/23 07:30:04;;;;;;;1.10;0.80;;;5.60;99.90;;;;;;5043662;28;20982;-72
2024/02/23 07:32:30;;;;;;;3.67;0.90;;;5.60;99.90;;;;;;5053751;28;20567;-72
2024/02/23 07:34:55;;;;;;;3.83;1.00;;;5.70;99.90;;;;;;5054133;28;20440;-72
2024/02/23 07:37:21;;;;;;;1.17;1.00;;;5.70;99.90;;;;;;5054205;28;20191;-72
2024/02/23 07:39:46;;;;;;;4.10;1.90;;;5.70;99.90;;;;;;5053013;28;20292;-72
2024/02/23 07:42:14;;;;;;;3.00;0.87;;;5.80;99.90;;;;;;5052678;28;20163;-72
2024/02/23 07:44:40;;;;;;;4.80;0.93;;;5.90;99.90;;;;;;5054109;28;20657;-72
2024/02/23 07:47:06;;;;;;;1.30;0.67;;;6.00;99.90;;;;;;5052689;28;20425;-72
2024/02/23 07:49:31;;;;;;;1.00;0.67;;;6.10;99.90;;;;;;5054072;28;20163;-72
2024/02/23 07:51:57;;;;;;;1.13;0.93;;;6.30;99.90;;;;;;5053771;28;20167;-72
2024/02/23 07:54:22;;;;;;;4.33;1.10;;;6.40;99.90;;;;;;5052318;28;20202;-72
2024/02/23 07:56:48;;;;;;;0.80;0.60;;;6.60;99.90;;;;;;5053846;28;20236;-72
2024/02/23 07:59:13;;;;;;;1.37;1.00;;;6.70;99.90;;;;;;5053911;28;20220;-72
2024/02/23 08:01:40;;;;;;;3.30;0.90;;;6.90;99.90;;;;;;5053671;28;20584;-72
2024/02/23 08:04:05;;;;;;;5.43;1.43;;;7.10;99.90;;;;;;5047040;28;20574;-69
2024/02/23 08:06:31;;;;;;;1.53;1.00;;;7.40;99.90;;;;;;5043632;28;20451;-69
2024/02/23 08:08:57;;;;;;;3.23;0.97;;;7.90;99.90;;;;;;5038032;28;20255;-70
2024/02/23 08:11:22;;;;;;;3.40;0.93;;;8.30;99.90;;;;;;5038123;28;20202;-70
2024/02/23 08:13:48;;;;;;;2.60;1.20;;;8.60;99.90;;;;;;5042927;28;20229;-69
2024/02/23 08:16:16;;;;;;;2.40;0.90;;;9.40;99.90;;;;;;5037599;28;20205;-69
2024/02/23 08:18:41;;;;;;;1.13;0.80;;;10.30;99.90;;;;;;5038301;28;20171;-69
2024/02/23 08:21:07;;;;;;;1.23;0.70;;;10.70;99.90;;;;;;5042647;28;20411;-69
2024/02/23 08:23:33;;;;;;;0.80;0.77;;;10.80;99.90;;;;;;5037024;28;20549;-68
2024/02/23 08:26:00;;;;;;;1.83;1.13;;;11.20;99.90;;;;;;5051212;28;20445;-70
2024/02/23 08:28:25;;;;;;;5.23;0.90;;;12.30;99.90;;;;;;5052663;28;20922;-68
2024/02/23 08:30:52;;;;;;;2.53;1.00;;;13.00;99.90;;;;;;5053038;28;20438;-68
2024/02/23 08:33:17;;;;;;;1.73;0.70;;;14.20;97.80;;;;;;5051362;28;20224;-69
2024/02/23 08:35:43;;;;;;;1.73;0.80;;;15.50;90.20;;;;;;5053264;28;20984;-69
2024/02/23 08:38:08;;;;;;;6.50;0.83;;;15.10;76.20;;;;;;5050455;28;20660;-69
2024/02/23 08:40:35;;;;;;;1.63;1.03;;;15.20;75.00;;;;;;5052915;28;20175;-69
2024/02/23 08:43:00;;;;;;;1.73;0.90;;;15.60;69.30;;;;;;5053149;28;20170;-69
2024/02/23 08:45:26;;;;;;;6.50;2.20;;;14.80;67.00;;;;;;5051855;28;20428;-68
2024/02/23 08:47:51;;;;;;;2.50;0.80;;;13.80;67.00;;;;;;5045526;28;20199;-68
2024/02/23 08:50:17;;;;;;;4.67;1.17;;;13.70;73.60;;;;;;5042379;28;20180;-66
2024/02/23 08:52:42;;;;;;;2.10;0.87;;;14.50;73.40;;;;;;5052418;28;20187;-68
2024/02/23 08:55:08;;;;;;;4.80;1.17;;;14.90;69.70;;;;;;5052924;28;20190;-68
2024/02/23 08:57:33;;;;;;;1.53;0.70;;;14.50;68.10;;;;;;5044430;28;20697;-67
2024/02/23 08:59:59;;;;;;;3.63;1.10;;;13.90;65.20;;;;;;5047809;28;20205;-68
2024/02/23 09:02:25;;;;;;;1.27;0.97;;;13.20;69.30;;;;;;5052283;28;20175;-68
2024/02/23 09:04:51;;;;;;;0.93;0.70;;;13.20;74.30;;;;;;5052576;28;20171;-68
2024/02/23 09:07:19;;;;;;;1.23;0.83;;;13.00;73.00;;;;;;5052638;28;20774;-68
2024/02/23 09:09:45;;;;;;;1.57;0.90;;;12.60;74.00;;;;;;5052632;28;20661;-68
2024/02/23 09:12:11;;;;;;;1.30;0.97;;;12.10;74.70;;;;;;5052284;28;20409;-67
2024/02/23 09:14:41;;;;;;;4.10;1.10;;;11.90;78.90;;;;;;5052060;28;20554;-67
2024/02/23 09:17:08;;;;;;;1.80;0.63;;;11.80;79.20;;;;;;5051255;28;20569;-67
2024/02/23 09:19:33;;;;;;;3.07;1.30;;;11.60;78.40;;;;;;5051242;28;20890;-68
2024/02/23 09:22:00;;;;;;;3.70;0.80;;;11.40;81.90;;;;;;5052119;28;20473;-67
2024/02/23 09:24:26;;;;;;;1.90;1.07;;;11.90;88.10;;;;;;5052387;28;20174;-67
2024/02/23 09:26:51;;;;;;;1.90;0.70;;;12.40;85.90;;;;;;5051888;28;20421;-67
2024/02/23 09:29:17;;;;;;;1.90;0.80;;;12.50;85.20;;;;;;5044792;28;20596;-68
2024/02/23 09:31:42;;;;;;;0.90;0.70;;;13.10;82.60;;;;;;5044409;28;20193;-68
2024/02/23 09:34:08;;;;;;;1.10;0.80;;;14.40;83.20;;;;;;5052039;28;20194;-68
2024/02/23 09:36:33;;;;;;;1.57;0.63;;;16.40;77.50;;;;;;5052053;28;20187;-68
2024/02/23 09:38:59;;;;;;;0.93;0.73;;;18.30;62.60;;;;;;5051849;28;20556;-68
2024/02/23 09:41:24;;;;;;;0.90;0.73;;;19.10;56.90;;;;;;5050419;28;20530;-68
2024/02/23 09:43:53;;;;;;;2.00;0.70;;;18.00;52.90;;;;;;5035857;28;20174;-66
2024/02/23 09:46:18;;;;;;;2.03;0.70;;;17.00;52.00;;;;;;5042173;28;20566;-66
2024/02/23 09:48:45;;;;;;;3.03;0.77;;;16.10;52.30;;;;;;5042420;28;20421;-67
2024/02/23 09:51:12;;;;;;;1.17;0.80;;;14.90;53.60;;;;;;5039223;28;20254;-67
2024/02/23 09:53:38;;;;;;;2.10;0.70;;;14.40;56.20;;;;;;5051464;28;20475;-67
2024/02/23 09:56:05;;;;;;;0.90;0.70;;;13.70;57.30;;;;;;5049910;28;20489;-67
2024/02/23 09:58:35;;;;;;;2.10;0.90;;;13.00;59.70;;;;;;5042582;28;20410;-67
2024/02/23 10:01:03;;;;;;;1.93;0.70;;;12.20;60.10;;;;;;5049341;28;20603;-66
2024/02/23 10:03:32;;;;;;;3.70;0.80;;;11.80;65.40;;;;;;5039057;28;20505;-66
2024/02/23 10:05:58;;;;;;;0.90;0.80;;;11.60;66.60;;;;;;5051440;28;20433;-66
2024/02/23 10:08:23;;;;;;;1.93;1.00;;;11.20;68.70;;;;;;5051422;28;20827;-67
2024/02/23 10:10:50;;;;;;;0.90;0.70;;;11.60;74.80;;;;;;5050998;28;20166;-66
2024/02/23 10:13:23;;;;;;;0.90;0.67;;;11.90;73.00;;;;;;5051276;28;20170;-67
2024/02/23 10:15:52;;;;;;;2.60;0.80;;;12.20;72.10;;;;;;5051409;28;20445;-67
2024/02/23 10:18:18;;;;;;;2.47;1.03;;;13.40;70.50;;;;;;5050025;28;20804;-67
2024/02/23 10:20:44;;;;;;;2.27;0.90;;;15.00;64.30;;;;;;5050326;28;20417;-67
2024/02/23 10:23:10;;;;;;;1.83;0.80;;;16.80;58.50;;;;;;5035594;28;20418;-67
2024/02/23 10:25:36;;;;;;;1.20;0.63;;;18.60;54.10;;;;;;5047475;28;20568;-67
2024/02/23 10:28:03;;;;;;;4.80;0.80;;;20.00;50.20;;;;;;5055075;28;20233;-68
2024/02/23 10:30:28;;;;;;;4.00;0.90;;;20.20;45.40;;;;;;5055584;28;20408;-67
2024/02/23 10:32:57;;;;;;;1.67;0.93;;;18.80;44.50;;;;;;5055327;28;20983;-67
2024/02/23 10:35:23;;;;;;;2.60;1.70;;;17.30;46.00;;;;;;5055507;28;20561;-67
2024/02/23 10:37:50;;;;;;;1.83;0.90;;;16.30;47.70;;;;;;5055375;28;20516;-67
2024/02/23 10:40:18;;;;;;;3.97;0.70;;;14.80;48.00;;;;;;5055408;28;20405;-67
2024/02/23 10:42:51;;;;;;;0.97;0.87;;;13.90;50.10;;;;;;5055160;28;20405;-67
2024/02/23 10:45:21;;;;;;;0.90;0.60;;;13.00;52.20;;;;;;5055472;28;20405;-67
2024/02/23 10:47:48;;;;;;;1.87;0.70;;;12.90;55.30;;;;;;5055293;28;20421;-67
2024/02/23 10:50:15;;;;;;;2.87;0.70;;;12.60;56.60;;;;;;5055281;28;20420;-67
2024/02/23 10:52:42;;;;;;;1.40;0.90;;;12.30;58.20;;;;;;5054682;28;20510;-67
2024/02/23 10:55:09;;;;;;;3.77;0.90;;;11.80;61.90;;;;;;5055015;28;20453;-67
2024/02/23 10:57:35;;;;;;;0.80;0.50;;;11.10;62.20;;;;;;5054991;28;20424;-67
2024/02/23 11:00:05;;;;;;;1.40;0.90;;;10.90;66.70;;;;;;5055094;28;20400;-67
2024/02/23 11:02:33;;;;;;;2.27;0.60;;;10.70;72.00;;;;;;5054888;28;20427;-67
2024/02/23 11:04:59;;;;;;;1.13;0.60;;;10.40;77.60;;;;;;5054908;28;20405;-67
2024/02/23 11:07:28;;;;;;;1.00;0.80;;;10.30;82.40;;;;;;5054890;28;20443;-67
2024/02/23 11:10:04;;;;;;;0.90;0.70;;;10.00;89.80;;;;;;5054852;28;20167;-67
2024/02/23 11:12:30;;;;;;;1.93;1.00;;;10.00;95.10;;;;;;5054356;28;20405;-67
2024/02/23 11:15:03;;;;;;;1.20;0.63;;;9.90;98.30;;;;;;5054835;28;20456;-67
2024/02/23 11:17:30;;;;;;;0.80;0.50;;;9.70;99.00;;;;;;5054620;28;20190;-67
2024/02/23 11:19:57;;;;;;;1.03;0.70;;;9.70;99.90;;;;;;5054711;28;20423;-67
2024/02/23 11:22:33;;;;;;;1.10;0.70;;;9.80;99.90;;;;;;5050046;28;20488;-67
2024/02/23 11:25:10;;;;;;;1.20;0.80;;;10.00;99.90;;;;;;5053194;28;20462;-67
2024/02/23 11:27:40;;;;;;;10.60;0.90;;;10.20;99.90;;;;;;5053029;28;20444;-67
2024/02/23 11:30:08;;;;;;;1.50;0.70;;;10.40;99.90;;;;;;5054399;28;20772;-67
2024/02/23 11:32:41;;;;;;;2.50;0.70;;;10.70;99.90;;;;;;5054264;28;20405;-67
2024/02/23 11:35:08;;;;;;;2.73;0.70;;;10.80;99.90;;;;;;5044471;28;20465;-67
2024/02/23 11:37:47;;;;;;;1.30;0.90;;;10.70;99.40;;;;;;5044629;28;20474;-67
2024/02/23 11:40:14;;;;;;;2.03;0.90;;;10.70;99.40;;;;;;5045197;28;20409;-67
2024/02/23 11:42:42;;;;;;;3.83;0.97;;;10.80;99.60;;;;;;5044218;28;20414;-67
2024/02/23 11:45:08;;;;;;;2.10;0.80;;;10.80;98.40;;;;;;5041554;28;20475;-67
2024/02/23 11:47:33;;;;;;;2.63;0.90;;;10.80;98.90;;;;;;5048902;28;20965;-66
2024/02/23 11:49:59;;;;;;;0.80;0.73;;;10.70;97.50;;;;;;5054064;28;20435;-67
2024/02/23 11:52:25;;;;;;;0.80;0.63;;;10.70;98.50;;;;;;5045367;28;20187;-67
2024/02/23 11:54:51;;;;;;;1.07;0.90;;;10.80;98.10;;;;;;5053620;28;20278;-67
2024/02/23 11:57:16;;;;;;;0.80;0.80;;;10.80;97.80;;;;;;5053745;28;20573;-67
2024/02/23 11:59:42;;;;;;;4.27;1.00;;;10.50;98.10;;;;;;5053720;28;20171;-68
2024/02/23 12:02:07;;;;;;;11.20;1.10;;;10.40;97.70;;;;;;5053467;28;20385;-67
2024/02/23 12:04:33;;;;;;;0.97;0.70;;;10.30;97.40;;;;;;5053861;28;20158;-67
2024/02/23 12:07:00;;;;;;;3.63;0.80;;;10.20;97.70;;;;;;5054127;28;20193;-67
2024/02/23 12:09:26;;;;;;;1.07;0.80;;;10.10;97.40;;;;;;5053801;28;20163;-67
2024/02/23 12:11:52;;;;;;;0.77;0.57;;;10.20;98.20;;;;;;5053453;28;20543;-67
2024/02/23 12:14:17;;;;;;;1.67;0.60;;;10.20;98.60;;;;;;5053579;28;20187;-67
2024/02/23 12:16:43;;;;;;;6.90;1.00;;;10.10;98.10;;;;;;5052340;28;20277;-67
2024/02/23 12:19:09;;;;;;;1.33;0.70;;;10.10;98.40;;;;;;5053632;28;20562;-67
2024/02/23 12:21:37;;;;;;;3.63;1.37;;;10.10;98.00;;;;;;5053402;28;20187;-67
2024/02/23 12:24:07;;;;;;;1.57;0.90;;;10.00;97.40;;;;;;5053443;28;20163;-67
2024/02/23 12:26:33;;;;;;;1.60;0.73;;;9.90;97.30;;;;;;5053444;28;20432;-67
2024/02/23 12:29:02;;;;;;;1.00;0.80;;;10.00;98.90;;;;;;5053577;28;20397;-67
2024/02/23 12:31:28;;;;;;;3.53;0.90;;;10.20;98.40;;;;;;5053173;28;20175;-67
2024/02/23 12:33:54;;;;;;;3.53;0.97;;;10.40;98.10;;;;;;5053213;28;20405;-67
2024/02/23 12:36:20;;;;;;;2.03;0.80;;;11.00;97.00;;;;;;5053279;28;20183;-67
2024/02/23 12:38:45;;;;;;;2.57;0.73;;;11.70;94.60;;;;;;5053190;28;20660;-67
2024/02/23 12:41:11;;;;;;;2.20;0.90;;;12.20;94.80;;;;;;5052890;28;20410;-67
2024/02/23 12:43:37;;;;;;;2.10;1.00;;;13.00;93.30;;;;;;5053120;28;20159;-67
2024/02/23 12:46:03;;;;;;;1.73;0.83;;;13.50;86.10;;;;;;5053016;28;20167;-67
2024/02/23 12:48:28;;;;;;;1.20;0.80;;;13.50;79.60;;;;;;5053092;28;20170;-67